createdAt,value
2018-09-21T00:01:23.309Z,17.90
2018-09-21T00:03:56.829Z,18.00
2018-09-21T00:06:24.497Z,18.00
2018-09-21T00:08:53.252Z,18.00
2018-09-21T00:11:20.850Z,17.90
2018-09-21T00:13:48.979Z,17.90
2018-09-21T00:16:16.917Z,17.90
2018-09-21T00:18:44.452Z,17.90
2018-09-21T00:21:11.995Z,17.90
2018-09-21T00:23:39.714Z,17.90
2018-09-21T00:26:07.817Z,17.80
2018-09-21T00:28:35.549Z,17.80
2018-09-21T00:31:03.190Z,17.80
2018-09-21T00:33:30.803Z,17.70
2018-09-21T00:35:58.409Z,17.70
2018-09-21T00:38:25.967Z,17.60
2018-09-21T00:40:53.675Z,17.60
2018-09-21T00:43:21.247Z,17.60
2018-09-21T00:45:48.797Z,17.60
2018-09-21T00:48:16.307Z,17.60
2018-09-21T00:50:43.830Z,17.50
2018-09-21T00:53:11.367Z,17.50
2018-09-21T00:55:39.226Z,17.50
2018-09-21T00:58:06.829Z,17.50
2018-09-21T01:00:34.428Z,17.50
2018-09-21T01:03:01.955Z,17.60
2018-09-21T01:05:29.595Z,17.50
2018-09-21T01:07:57.178Z,17.50
2018-09-21T01:10:24.912Z,17.40
2018-09-21T01:12:52.955Z,17.40
2018-09-21T01:15:20.509Z,17.40
2018-09-21T01:17:48.236Z,17.30
2018-09-21T01:20:15.814Z,17.30
2018-09-21T01:22:43.422Z,17.30
2018-09-21T01:25:11.018Z,17.30
2018-09-21T01:27:52.790Z,17.20
2018-09-21T01:30:20.336Z,17.20
2018-09-21T01:32:48.071Z,17.20
2018-09-21T01:35:15.602Z,17.20
2018-09-21T01:37:43.172Z,17.30
2018-09-21T01:40:10.729Z,17.30
2018-09-21T01:42:38.324Z,17.20
2018-09-21T01:45:06.155Z,17.20
2018-09-21T01:47:34.205Z,17.20
2018-09-21T01:50:01.800Z,17.20
2018-09-21T01:52:29.444Z,17.20
2018-09-21T01:54:57.018Z,17.20
2018-09-21T01:57:24.894Z,17.20
2018-09-21T01:59:52.395Z,17.20
2018-09-21T02:02:19.943Z,17.30
2018-09-21T02:04:47.493Z,17.30
2018-09-21T02:07:15.157Z,17.30
2018-09-21T02:09:42.878Z,17.30
2018-09-21T02:12:10.651Z,17.30
2018-09-21T02:14:38.193Z,17.40
2018-09-21T02:17:05.773Z,17.40
2018-09-21T02:19:33.482Z,17.40
2018-09-21T02:22:01.496Z,17.40
2018-09-21T02:24:29.083Z,17.40
2018-09-21T02:26:56.606Z,17.50
2018-09-21T02:29:24.145Z,17.50
2018-09-21T02:31:51.720Z,17.60
2018-09-21T02:34:19.369Z,17.60
2018-09-21T02:36:46.926Z,17.60
2018-09-21T02:39:14.555Z,17.60
2018-09-21T02:41:42.281Z,17.50
2018-09-21T02:44:09.844Z,17.50
2018-09-21T02:46:37.594Z,17.50
2018-09-21T02:49:05.151Z,17.50
2018-09-21T02:51:33.125Z,17.50
2018-09-21T02:54:00.686Z,17.50
2018-09-21T02:56:28.272Z,17.40
2018-09-21T02:58:55.848Z,17.40
2018-09-21T03:01:23.419Z,17.40
2018-09-21T03:03:51.168Z,17.30
2018-09-21T03:06:18.945Z,17.20
2018-09-21T03:08:46.484Z,17.20
2018-09-21T03:11:14.048Z,17.20
2018-09-21T03:13:41.616Z,17.20
2018-09-21T03:16:09.390Z,17.30
2018-09-21T03:18:36.934Z,17.30
2018-09-21T03:21:04.512Z,17.40
2018-09-21T03:23:32.096Z,17.40
2018-09-21T03:25:59.601Z,17.50
2018-09-21T03:28:27.334Z,17.70
2018-09-21T03:30:54.979Z,17.80
2018-09-21T03:33:22.528Z,17.90
2018-09-21T03:35:50.123Z,18.00
2018-09-21T03:38:18.082Z,18.00
2018-09-21T03:40:45.726Z,18.00
2018-09-21T03:43:13.466Z,18.00
2018-09-21T03:45:41.119Z,18.00
2018-09-21T03:48:08.822Z,18.00
2018-09-21T03:50:36.400Z,18.00
2018-09-21T03:53:04.137Z,18.00
2018-09-21T03:55:31.668Z,17.90
2018-09-21T03:57:59.165Z,17.90
2018-09-21T04:00:26.764Z,17.80
2018-09-21T04:02:54.940Z,17.80
2018-09-21T04:05:22.566Z,17.70
2018-09-21T04:07:50.108Z,17.80
2018-09-21T04:10:17.851Z,17.90
2018-09-21T04:12:45.437Z,17.90
2018-09-21T04:15:13.155Z,17.90
2018-09-21T04:17:40.761Z,17.90
2018-09-21T04:20:08.347Z,17.80
2018-09-21T04:22:35.943Z,17.80
2018-09-21T04:25:04.423Z,17.80
2018-09-21T04:27:32.121Z,17.80
2018-09-21T04:29:59.732Z,17.80
2018-09-21T04:32:27.262Z,17.80
2018-09-21T04:34:55.058Z,17.80
2018-09-21T04:37:22.908Z,17.90
2018-09-21T04:39:50.480Z,17.80
2018-09-21T04:42:18.053Z,17.90
2018-09-21T04:44:45.916Z,18.00
2018-09-21T04:47:13.576Z,17.90
2018-09-21T04:49:41.469Z,17.90
2018-09-21T04:52:09.002Z,17.90
2018-09-21T04:54:36.541Z,17.90
2018-09-21T04:57:04.126Z,17.90
2018-09-21T04:59:31.750Z,17.90
2018-09-21T05:01:59.337Z,17.80
2018-09-21T05:04:26.874Z,17.80
2018-09-21T05:06:54.488Z,17.80
2018-09-21T05:09:22.283Z,17.80
2018-09-21T05:11:49.904Z,17.70
2018-09-21T05:14:17.510Z,17.70
2018-09-21T05:16:45.015Z,17.90
2018-09-21T05:19:12.693Z,17.90
2018-09-21T05:21:40.262Z,17.90
2018-09-21T05:24:08.263Z,17.80
2018-09-21T05:26:35.838Z,17.80
2018-09-21T05:29:03.515Z,17.70
2018-09-21T05:31:31.214Z,17.80
2018-09-21T05:33:58.881Z,17.80
2018-09-21T05:36:26.491Z,17.70
2018-09-21T05:38:54.064Z,17.80
2018-09-21T05:41:21.573Z,17.80
2018-09-21T05:43:49.117Z,17.80
2018-09-21T05:46:17.159Z,17.90
2018-09-21T05:48:44.752Z,17.90
2018-09-21T05:51:12.340Z,18.00
2018-09-21T05:53:39.972Z,18.00
2018-09-21T05:56:07.600Z,18.00
2018-09-21T05:58:35.397Z,18.00
2018-09-21T06:01:03.076Z,18.10
2018-09-21T06:03:30.604Z,18.20
2018-09-21T06:05:58.512Z,18.20
2018-09-21T06:08:26.696Z,18.30
2018-09-21T06:10:54.459Z,18.40
2018-09-21T06:13:22.015Z,18.50
2018-09-21T06:15:49.571Z,18.70
2018-09-21T06:18:17.609Z,18.80
2018-09-21T06:20:45.155Z,19.00
2018-09-21T06:23:12.726Z,19.10
2018-09-21T06:25:40.262Z,19.30
2018-09-21T06:28:07.951Z,19.50
2018-09-21T06:30:35.554Z,19.70
2018-09-21T06:33:03.296Z,19.90
2018-09-21T06:35:47.902Z,20.20
2018-09-21T06:38:16.806Z,20.40
2018-09-21T06:40:44.390Z,20.70
2018-09-21T06:43:11.971Z,21.00
2018-09-21T06:45:39.549Z,21.30
2018-09-21T06:48:07.890Z,21.60
2018-09-21T06:50:35.370Z,21.90
2018-09-21T06:53:02.922Z,22.20
2018-09-21T06:55:30.696Z,22.60
2018-09-21T06:57:58.465Z,23.00
2018-09-21T07:00:26.050Z,23.20
2018-09-21T07:02:53.628Z,23.20
2018-09-21T07:05:21.466Z,23.20
2018-09-21T07:07:49.026Z,23.50
2018-09-21T07:10:16.602Z,23.60
2018-09-21T07:12:44.182Z,23.70
2018-09-21T07:15:11.817Z,23.60
2018-09-21T07:17:40.069Z,23.60
2018-09-21T07:20:07.717Z,23.40
2018-09-21T07:22:35.226Z,23.50
2018-09-21T07:25:03.184Z,23.50
2018-09-21T07:27:31.029Z,23.70
2018-09-21T07:29:58.615Z,23.90
2018-09-21T07:38:14.831Z,24.50
2018-09-21T07:40:42.486Z,24.50
2018-09-21T07:43:10.053Z,24.70
2018-09-21T07:45:37.914Z,24.90
2018-09-21T07:48:05.716Z,25.10
2018-09-21T07:50:33.445Z,25.20
2018-09-21T07:53:00.939Z,25.30
2018-09-21T07:55:28.477Z,25.50
2018-09-21T07:57:56.040Z,25.80
2018-09-21T08:00:23.731Z,25.90
2018-09-21T08:02:51.374Z,25.80
2018-09-21T08:05:26.806Z,25.80
2018-09-21T08:07:54.404Z,25.80
2018-09-21T08:10:22.207Z,25.60
2018-09-21T08:12:49.814Z,25.70
2018-09-21T08:15:17.331Z,25.90
2018-09-21T08:17:44.907Z,26.00
2018-09-21T08:20:12.422Z,26.00
2018-09-21T08:22:40.211Z,26.00
2018-09-21T08:25:07.813Z,26.00
2018-09-21T08:27:35.460Z,25.90
2018-09-21T08:30:03.226Z,26.00
2018-09-21T08:32:30.810Z,26.20
2018-09-21T08:34:58.488Z,26.30
2018-09-21T08:37:26.087Z,26.40
2018-09-21T08:39:53.767Z,26.50
2018-09-21T08:42:21.449Z,26.70
2018-09-21T08:44:48.998Z,26.90
2018-09-21T08:47:17.110Z,27.00
2018-09-21T08:49:44.829Z,27.00
2018-09-21T08:52:12.727Z,27.00
2018-09-21T08:54:40.363Z,26.90
2018-09-21T08:57:07.962Z,26.90
2018-09-21T08:59:35.564Z,26.80
2018-09-21T09:02:03.501Z,26.50
2018-09-21T09:04:31.149Z,26.40
2018-09-21T09:06:58.675Z,26.20
2018-09-21T09:09:26.755Z,26.10
2018-09-21T09:11:54.550Z,26.00
2018-09-21T09:14:22.125Z,26.00
2018-09-21T09:16:50.039Z,25.80
2018-09-21T09:19:17.736Z,25.80
2018-09-21T09:21:45.339Z,25.80
2018-09-21T09:24:13.772Z,25.80
2018-09-21T09:26:41.477Z,25.80
2018-09-21T09:29:09.566Z,25.80
2018-09-21T09:31:37.466Z,25.90
2018-09-21T09:34:05.183Z,26.10
2018-09-21T09:36:32.820Z,26.20
2018-09-21T09:39:00.416Z,26.30
2018-09-21T09:41:28.247Z,26.30
2018-09-21T09:43:55.760Z,26.30
2018-09-21T09:46:23.875Z,26.30
2018-09-21T09:48:52.679Z,26.40
2018-09-21T09:51:20.756Z,26.40
2018-09-21T09:53:48.369Z,26.50
2018-09-21T09:56:16.060Z,26.50
2018-09-21T09:58:43.795Z,26.60
2018-09-21T10:01:11.981Z,26.60
2018-09-21T10:03:40.037Z,26.60
2018-09-21T10:06:07.947Z,26.70
2018-09-21T10:08:35.554Z,26.70
2018-09-21T10:11:04.607Z,26.60
2018-09-21T10:13:32.424Z,26.60
2018-09-21T10:15:59.959Z,26.60
2018-09-21T10:18:27.619Z,26.50
2018-09-21T10:20:55.938Z,26.50
2018-09-21T10:23:23.575Z,26.50
2018-09-21T10:25:51.138Z,26.60
2018-09-21T10:28:18.846Z,26.60
2018-09-21T10:30:46.555Z,26.80
2018-09-21T10:33:14.468Z,26.90
2018-09-21T10:35:42.881Z,27.00
2018-09-21T10:38:10.617Z,27.10
2018-09-21T10:40:38.245Z,27.20
2018-09-21T10:43:06.191Z,27.20
2018-09-21T10:45:33.954Z,27.30
2018-09-21T10:48:01.569Z,27.30
2018-09-21T10:50:29.243Z,27.20
2018-09-21T10:52:56.780Z,27.20
2018-09-21T10:55:24.526Z,27.20
2018-09-21T10:57:52.514Z,27.20
2018-09-21T11:00:20.551Z,27.20
2018-09-21T11:02:48.085Z,27.20
2018-09-21T11:05:15.651Z,27.10
2018-09-21T11:07:43.294Z,27.10
2018-09-21T11:10:11.246Z,27.20
2018-09-21T11:12:39.065Z,27.20
2018-09-21T11:15:06.671Z,27.30
2018-09-21T11:17:34.501Z,27.30
2018-09-21T11:20:02.394Z,27.30
2018-09-21T11:22:30.012Z,27.30
2018-09-21T11:24:57.531Z,27.20
2018-09-21T11:27:25.097Z,27.30
2018-09-21T11:29:52.612Z,27.20
2018-09-21T11:32:20.132Z,27.10
2018-09-21T11:34:47.663Z,27.00
2018-09-21T11:37:16.517Z,27.00
2018-09-21T11:39:44.088Z,26.90
2018-09-21T11:42:11.900Z,26.90
2018-09-21T11:44:39.493Z,26.90
2018-09-21T11:47:07.054Z,26.90
2018-09-21T11:49:34.563Z,26.90
2018-09-21T11:52:02.560Z,26.80
2018-09-21T11:54:30.523Z,26.90
2018-09-21T11:56:58.102Z,27.00
2018-09-21T11:59:26.048Z,27.00
2018-09-21T12:01:54.336Z,27.00
2018-09-21T12:04:22.705Z,26.90
2018-09-21T12:06:50.713Z,26.90
2018-09-21T12:09:18.531Z,26.90
2018-09-21T12:11:46.088Z,26.90
2018-09-21T12:14:13.620Z,26.80
2018-09-21T12:16:41.618Z,26.70
2018-09-21T12:19:11.070Z,26.60
2018-09-21T12:21:40.938Z,26.60
2018-09-21T12:24:08.810Z,26.50
2018-09-21T12:26:36.719Z,26.60
2018-09-21T12:29:04.802Z,26.70
2018-09-21T12:31:32.426Z,26.80
2018-09-21T12:34:00.449Z,27.00
2018-09-21T12:36:29.253Z,27.10
2018-09-21T12:38:58.145Z,27.10
2018-09-21T12:41:26.245Z,27.10
2018-09-21T12:43:55.918Z,27.10
2018-09-21T12:46:27.121Z,26.90
2018-09-21T12:48:57.398Z,26.80
2018-09-21T12:51:25.801Z,26.70
2018-09-21T12:53:54.949Z,26.80
2018-09-21T12:56:24.150Z,26.90
2018-09-21T12:58:52.599Z,26.90
2018-09-21T13:01:21.186Z,27.00
2018-09-21T13:03:49.640Z,27.20
2018-09-21T13:06:18.796Z,27.40
2018-09-21T13:08:47.617Z,27.50
2018-09-21T13:11:16.096Z,27.70
2018-09-21T13:13:44.467Z,27.80
2018-09-21T13:16:13.210Z,27.90
2018-09-21T13:18:41.847Z,28.00
2018-09-21T13:21:10.708Z,27.90
2018-09-21T13:23:38.762Z,27.90
2018-09-21T13:26:07.021Z,27.90
2018-09-21T13:28:35.164Z,27.80
2018-09-21T13:31:03.721Z,27.90
2018-09-21T13:33:32.096Z,27.90
2018-09-21T13:36:00.613Z,28.00
2018-09-21T13:38:28.840Z,27.80
2018-09-21T13:40:57.712Z,27.70
2018-09-21T13:43:25.927Z,27.60
2018-09-21T13:45:54.182Z,27.70
2018-09-21T13:48:22.218Z,27.70
2018-09-21T13:50:50.341Z,27.70
2018-09-21T13:53:18.771Z,27.60
2018-09-21T13:55:46.974Z,27.50
2018-09-21T13:58:14.840Z,27.40
2018-09-21T14:00:42.529Z,27.20
2018-09-21T14:03:10.158Z,27.20
2018-09-21T14:05:38.034Z,27.20
2018-09-21T14:08:05.840Z,27.10
2018-09-21T14:10:34.206Z,26.90
2018-09-21T14:13:02.521Z,26.90
2018-09-21T14:15:30.461Z,26.80
2018-09-21T14:17:58.292Z,26.80
2018-09-21T14:20:26.045Z,26.70
2018-09-21T14:22:54.084Z,26.60
2018-09-21T14:25:22.066Z,26.60
2018-09-21T14:27:49.684Z,26.50
2018-09-21T14:30:17.394Z,26.40
2018-09-21T14:32:45.780Z,26.40
2018-09-21T14:35:13.808Z,26.30
2018-09-21T14:37:41.730Z,26.30
2018-09-21T14:40:09.438Z,26.10
2018-09-21T14:42:37.819Z,26.10
2018-09-21T14:45:06.560Z,26.10
2018-09-21T14:47:34.283Z,26.00
2018-09-21T14:50:02.178Z,26.00
2018-09-21T14:52:29.773Z,25.80
2018-09-21T14:54:57.330Z,25.70
2018-09-21T14:57:24.915Z,25.70
2018-09-21T14:59:52.793Z,25.60
2018-09-21T15:02:20.336Z,25.50
2018-09-21T15:04:47.939Z,25.50
2018-09-21T15:07:15.622Z,25.40
2018-09-21T15:09:43.164Z,25.30
2018-09-21T15:12:10.792Z,25.30
2018-09-21T15:14:38.396Z,25.20
2018-09-21T15:17:06.000Z,25.20
2018-09-21T15:19:33.574Z,25.20
2018-09-21T15:22:01.266Z,25.20
2018-09-21T15:24:28.980Z,25.20
2018-09-21T15:26:57.307Z,25.10
2018-09-21T15:29:25.128Z,25.10
2018-09-21T15:31:52.947Z,24.90
2018-09-21T15:34:20.595Z,24.60
2018-09-21T15:36:48.204Z,24.40
2018-09-21T15:39:15.767Z,24.20
2018-09-21T15:41:43.298Z,23.90
2018-09-21T15:44:10.787Z,23.60
2018-09-21T15:46:38.435Z,23.30
2018-09-21T15:49:06.234Z,23.10
2018-09-21T15:51:34.744Z,22.90
2018-09-21T15:54:02.263Z,22.70
2018-09-21T15:56:29.902Z,22.40
2018-09-21T15:58:57.948Z,22.20
2018-09-21T16:01:25.540Z,22.10
2018-09-21T16:03:53.112Z,22.10
2018-09-21T16:06:20.747Z,21.90
2018-09-21T16:08:48.335Z,21.80
2018-09-21T16:11:15.956Z,21.80
2018-09-21T16:13:43.729Z,21.70
2018-09-21T16:16:11.408Z,21.60
2018-09-21T16:18:39.081Z,21.60
2018-09-21T16:21:06.721Z,21.50
2018-09-21T16:23:34.668Z,21.40
2018-09-21T16:26:02.216Z,21.40
2018-09-21T16:28:29.834Z,21.40
2018-09-21T16:30:57.496Z,21.40
2018-09-21T16:33:25.103Z,21.40
2018-09-21T16:35:52.793Z,21.30
2018-09-21T16:38:20.320Z,21.10
2018-09-21T16:40:47.856Z,21.10
2018-09-21T16:43:15.538Z,21.00
2018-09-21T16:45:43.023Z,21.00
2018-09-21T16:48:11.726Z,20.90
2018-09-21T16:50:39.473Z,20.70
2018-09-21T16:53:06.984Z,20.20
2018-09-21T16:55:34.717Z,19.50
2018-09-21T16:58:02.339Z,19.00
2018-09-21T17:00:29.824Z,18.80
2018-09-21T17:02:57.378Z,18.60
2018-09-21T17:05:25.376Z,18.50
2018-09-21T17:07:52.975Z,18.10
2018-09-21T17:10:20.540Z,18.00
2018-09-21T17:12:48.122Z,17.70
2018-09-21T17:15:15.712Z,17.70
2018-09-21T17:17:43.604Z,17.50
2018-09-21T17:20:11.230Z,17.30
2018-09-21T17:22:38.936Z,17.00
2018-09-21T17:25:07.299Z,17.00
2018-09-21T17:27:34.955Z,16.80
2018-09-21T17:30:02.614Z,16.70
2018-09-21T17:32:30.317Z,16.50
2018-09-21T17:34:57.894Z,16.20
2018-09-21T17:37:25.677Z,16.10
2018-09-21T17:39:53.587Z,16.00
2018-09-21T17:42:21.240Z,15.90
2018-09-21T17:44:48.859Z,15.80
2018-09-21T17:47:16.364Z,15.70
2018-09-21T17:49:43.892Z,15.70
2018-09-21T17:52:11.464Z,15.50
2018-09-21T17:54:39.331Z,15.50
2018-09-21T17:57:07.670Z,15.60
2018-09-21T17:59:35.147Z,15.50
2018-09-21T18:02:02.851Z,15.60
2018-09-21T18:04:30.555Z,15.60
2018-09-21T18:06:58.113Z,15.60
2018-09-21T18:09:25.727Z,15.60
2018-09-21T18:11:53.404Z,15.60
2018-09-21T18:14:20.957Z,15.60
2018-09-21T18:16:48.547Z,15.60
2018-09-21T18:19:16.569Z,15.70
2018-09-21T18:21:44.267Z,15.70
2018-09-21T18:24:11.836Z,15.70
2018-09-21T18:26:39.457Z,15.70
2018-09-21T18:29:07.074Z,15.80
2018-09-21T18:31:34.805Z,15.80
2018-09-21T18:34:02.396Z,15.90
2018-09-21T18:36:30.010Z,16.00
2018-09-21T18:38:57.624Z,16.00
2018-09-21T18:41:25.193Z,15.90
2018-09-21T18:43:54.587Z,15.90
2018-09-21T18:46:22.172Z,15.80
2018-09-21T18:48:49.756Z,15.90
2018-09-21T18:51:17.507Z,15.80
2018-09-21T18:53:45.167Z,15.80
2018-09-21T18:56:12.807Z,15.80
2018-09-21T18:58:40.541Z,15.80
2018-09-21T19:01:08.185Z,15.60
2018-09-21T19:03:38.977Z,15.70
2018-09-21T19:06:06.508Z,15.70
2018-09-21T19:08:34.078Z,15.70
2018-09-21T19:11:01.698Z,15.70
2018-09-21T19:13:29.263Z,15.70
2018-09-21T19:15:57.017Z,15.70
2018-09-21T19:18:24.567Z,15.60
2018-09-21T19:20:52.205Z,15.40
2018-09-21T19:23:19.793Z,15.40
2018-09-21T19:25:47.517Z,15.40
2018-09-21T19:28:15.282Z,15.40
2018-09-21T19:30:42.886Z,15.60
2018-09-21T19:33:10.716Z,15.60
2018-09-21T19:35:38.243Z,15.50
2018-09-21T19:38:05.862Z,15.60
2018-09-21T19:40:33.832Z,15.50
2018-09-21T19:43:01.423Z,15.40
2018-09-21T19:45:28.998Z,15.20
2018-09-21T19:47:56.567Z,15.20
2018-09-21T19:50:24.203Z,15.20
2018-09-21T19:52:52.291Z,15.30
2018-09-21T19:55:19.904Z,15.20
2018-09-21T19:57:47.468Z,15.20
2018-09-21T20:00:15.121Z,15.10
2018-09-21T20:02:42.719Z,14.90
2018-09-21T20:05:10.562Z,14.90
2018-09-21T20:07:38.155Z,14.90
2018-09-21T20:10:05.898Z,14.80
2018-09-21T20:12:33.700Z,14.80
2018-09-21T20:15:01.221Z,14.70
2018-09-21T20:17:28.832Z,14.70
2018-09-21T20:19:56.520Z,14.60
2018-09-21T20:22:24.094Z,14.60
2018-09-21T20:24:51.561Z,14.60
2018-09-21T20:27:19.157Z,14.60
2018-09-21T20:29:46.642Z,14.60
2018-09-21T20:32:19.800Z,14.50
2018-09-21T20:34:47.349Z,14.50
2018-09-21T20:37:14.998Z,14.50
2018-09-21T20:39:42.634Z,14.40
2018-09-21T20:42:10.247Z,14.30
2018-09-21T20:44:37.896Z,14.30
2018-09-21T20:47:05.401Z,14.20
2018-09-21T20:49:32.973Z,14.30
2018-09-21T20:52:00.563Z,14.30
2018-09-21T20:54:28.181Z,14.30
2018-09-21T20:56:55.844Z,14.20
2018-09-21T20:59:23.617Z,14.20
2018-09-21T21:01:51.158Z,14.30
2018-09-21T21:04:18.719Z,14.20
2018-09-21T21:06:46.628Z,14.20
2018-09-21T21:09:14.201Z,14.10
2018-09-21T21:11:41.801Z,14.00
2018-09-21T21:14:09.353Z,14.00
2018-09-21T21:16:36.928Z,14.00
2018-09-21T21:19:04.699Z,14.00
2018-09-21T21:21:32.348Z,14.00
2018-09-21T21:24:00.090Z,14.10
2018-09-21T21:26:27.695Z,14.10
2018-09-21T21:28:55.448Z,14.20
2018-09-21T21:31:23.034Z,14.20
2018-09-21T21:33:50.754Z,14.20
2018-09-21T21:36:18.258Z,14.00
2018-09-21T21:38:46.072Z,14.10
2018-09-21T21:41:13.631Z,14.00
2018-09-21T21:43:41.246Z,14.00
2018-09-21T21:46:08.801Z,14.00
2018-09-21T21:48:36.331Z,14.00
2018-09-21T21:51:03.897Z,14.10
2018-09-21T21:53:31.523Z,14.20
2018-09-21T21:55:59.198Z,14.10
2018-09-21T21:58:26.726Z,14.10
2018-09-21T22:00:59.999Z,14.20
2018-09-21T22:03:27.547Z,14.10
2018-09-21T22:05:55.441Z,14.20
2018-09-21T22:08:23.118Z,14.20
2018-09-21T22:10:50.756Z,14.20
2018-09-21T22:13:23.794Z,14.10
2018-09-21T22:15:51.359Z,14.00
2018-09-21T22:18:18.998Z,13.90
2018-09-21T22:20:46.945Z,14.00
2018-09-21T22:23:14.503Z,14.10
2018-09-21T22:25:42.239Z,14.00
2018-09-21T22:28:09.915Z,13.90
2018-09-21T22:30:37.463Z,13.90
2018-09-21T22:33:05.312Z,14.00
2018-09-21T22:35:33.081Z,14.00
2018-09-21T22:38:00.631Z,14.10
2018-09-21T22:40:28.392Z,14.00
2018-09-21T22:42:55.975Z,14.10
2018-09-21T22:45:23.597Z,14.00
2018-09-21T22:47:51.107Z,14.00
2018-09-21T22:50:18.620Z,14.00
2018-09-21T22:52:46.151Z,13.90
2018-09-21T22:55:13.751Z,13.90
2018-09-21T22:57:41.339Z,13.90
2018-09-21T23:00:08.956Z,13.90
2018-09-21T23:02:36.582Z,13.80
2018-09-21T23:05:04.264Z,13.70
2018-09-21T23:07:32.245Z,13.80
2018-09-21T23:10:00.295Z,13.70
2018-09-21T23:12:27.900Z,13.70
2018-09-21T23:14:55.425Z,13.70
2018-09-21T23:17:23.058Z,13.60
2018-09-21T23:19:50.976Z,13.50
2018-09-21T23:22:18.638Z,13.30
2018-09-21T23:24:46.190Z,13.40
2018-09-21T23:27:13.715Z,13.40
2018-09-21T23:29:41.255Z,13.30
2018-09-21T23:32:08.975Z,13.30
2018-09-21T23:34:36.508Z,13.20
2018-09-21T23:37:04.439Z,13.20
2018-09-21T23:39:32.042Z,13.20
2018-09-21T23:41:59.639Z,13.30
2018-09-21T23:44:27.333Z,13.30
2018-09-21T23:46:54.939Z,13.20
2018-09-21T23:49:22.492Z,13.00
2018-09-21T23:51:50.148Z,12.90
2018-09-21T23:54:17.700Z,12.90
2018-09-21T23:56:45.412Z,12.90
2018-09-21T23:59:13.058Z,12.80
